createdAt,value
2023-05-01T00:07:58.192Z,1.70
2023-05-01T00:10:02.135Z,2.50
2023-05-01T00:11:31.081Z,1.90
2023-05-01T00:15:16.441Z,1.90
2023-05-01T00:16:45.358Z,2.20
2023-05-01T00:18:18.232Z,1.60
2023-05-01T00:19:18.208Z,1.80
2023-05-01T00:20:18.203Z,1.90
2023-05-01T00:21:18.163Z,1.80
2023-05-01T00:25:22.078Z,2.60
2023-05-01T00:27:20.941Z,2.00
2023-05-01T00:29:20.949Z,2.20
2023-05-01T00:31:20.437Z,2.10
2023-05-01T00:37:21.880Z,2.10
2023-05-01T00:38:53.422Z,2.10
2023-05-01T00:40:22.136Z,2.50
2023-05-01T00:45:25.062Z,2.30
2023-05-01T00:46:54.750Z,2.00
2023-05-01T00:48:24.998Z,1.90
2023-05-01T00:51:29.245Z,2.10
2023-05-01T00:53:34.439Z,2.30
2023-05-01T00:55:37.528Z,2.40
2023-05-01T00:57:38.861Z,1.90
2023-05-01T01:00:39.656Z,2.50
2023-05-01T01:02:42.013Z,2.00
2023-05-01T01:04:16.176Z,3.10
2023-05-01T01:06:17.578Z,2.70
2023-05-01T01:08:19.506Z,2.40
2023-05-01T01:10:19.909Z,2.00
2023-05-01T01:13:23.418Z,2.80
2023-05-01T01:18:00.342Z,2.30
2023-05-01T01:19:32.036Z,2.40
2023-05-01T01:21:04.397Z,2.40
2023-05-01T01:23:07.513Z,2.60
2023-05-01T01:26:11.946Z,2.60
2023-05-01T01:27:44.472Z,2.30
2023-05-01T01:30:17.316Z,2.40
2023-05-01T01:33:21.082Z,2.10
2023-05-01T01:34:50.367Z,2.10
2023-05-01T01:36:22.136Z,2.10
2023-05-01T01:37:55.061Z,2.50
2023-05-01T01:42:31.582Z,2.30
2023-05-01T01:44:36.910Z,2.60
2023-05-01T01:52:22.244Z,2.10
2023-05-01T01:56:03.844Z,2.00
2023-05-01T01:58:07.127Z,2.10
2023-05-01T02:01:44.337Z,2.30
2023-05-01T02:06:01.478Z,1.80
2023-05-01T02:09:04.122Z,2.70
2023-05-01T02:15:44.775Z,2.30
2023-05-01T02:19:49.707Z,2.50
2023-05-01T02:22:52.374Z,2.50
2023-05-01T02:25:55.049Z,2.40
2023-05-01T02:27:56.274Z,2.80
2023-05-01T02:33:15.723Z,2.20
2023-05-01T02:35:48.140Z,2.00
2023-05-01T02:37:19.865Z,2.30
2023-05-01T02:41:58.404Z,1.90
2023-05-01T02:44:29.124Z,2.40
2023-05-01T02:47:03.192Z,2.60
2023-05-01T02:51:08.070Z,2.50
2023-05-01T02:52:38.996Z,2.10
2023-05-01T02:54:41.057Z,2.50
2023-05-01T02:57:45.369Z,2.30
2023-05-01T03:01:57.687Z,2.20
2023-05-01T03:06:03.532Z,2.80
2023-05-01T03:11:10.684Z,2.40
2023-05-01T03:18:57.905Z,2.10
2023-05-01T03:21:35.811Z,1.80
2023-05-01T03:26:35.554Z,2.30
2023-05-01T03:30:07.736Z,2.80
2023-05-01T03:35:16.258Z,3.80
2023-05-01T03:36:46.685Z,2.20
2023-05-01T03:40:54.061Z,2.40
2023-05-01T03:45:56.273Z,2.70
2023-05-01T03:47:27.295Z,2.80
2023-05-01T03:53:06.424Z,2.60
2023-05-01T03:55:39.603Z,2.10
2023-05-01T03:57:13.834Z,2.60
2023-05-01T04:01:17.122Z,2.40
2023-05-01T04:03:47.105Z,2.80
2023-05-01T04:05:17.962Z,2.60
2023-05-01T04:08:53.417Z,2.70
2023-05-01T04:10:57.094Z,3.10
2023-05-01T04:14:03.064Z,2.40
2023-05-01T04:16:06.022Z,2.20
2023-05-01T04:20:10.902Z,2.10
2023-05-01T04:22:44.076Z,2.50
2023-05-01T04:24:46.968Z,3.20
2023-05-01T04:30:26.148Z,2.40
2023-05-01T04:33:59.098Z,3.30
2023-05-01T04:36:01.969Z,2.70
2023-05-01T04:38:34.351Z,2.40
2023-05-01T04:41:07.516Z,2.50
2023-05-01T04:44:11.864Z,2.90
2023-05-01T04:47:13.723Z,2.60
2023-05-01T04:50:44.265Z,2.60
2023-05-01T04:59:27.737Z,2.80
2023-05-01T05:04:36.560Z,2.90
2023-05-01T05:06:06.717Z,2.40
2023-05-01T05:07:38.420Z,2.40
2023-05-01T05:14:19.420Z,3.00
2023-05-01T05:21:29.110Z,3.20
2023-05-01T05:25:02.885Z,2.00
2023-05-01T05:35:26.305Z,2.20
2023-05-01T05:37:26.754Z,2.50
2023-05-01T05:42:38.719Z,2.70
2023-05-01T05:44:42.115Z,2.90
2023-05-01T05:46:11.914Z,2.60
2023-05-01T05:50:44.663Z,2.50
2023-05-01T05:52:45.886Z,3.10
2023-05-01T05:57:24.403Z,2.50
2023-05-01T05:59:24.817Z,2.80
2023-05-01T06:01:26.065Z,2.40
2023-05-01T06:03:30.906Z,2.30
2023-05-01T06:09:05.815Z,1.90
2023-05-01T06:14:12.245Z,3.10
2023-05-01T06:16:12.315Z,2.50
2023-05-01T06:17:45.906Z,2.50
2023-05-01T06:23:21.730Z,2.70
2023-05-01T06:26:54.709Z,2.20
2023-05-01T06:28:55.954Z,2.20
2023-05-01T06:32:59.112Z,2.70
2023-05-01T06:34:58.846Z,3.30
2023-05-01T06:37:29.601Z,3.10
2023-05-01T06:39:31.634Z,2.80
2023-05-01T06:42:35.194Z,2.30
2023-05-01T06:44:06.125Z,2.80
2023-05-01T06:46:40.187Z,2.70
2023-05-01T06:48:42.153Z,2.00
2023-05-01T06:50:13.084Z,3.00
2023-05-01T06:58:16.570Z,2.30
2023-05-01T06:59:38.810Z,2.30
2023-05-01T07:01:40.615Z,2.20
2023-05-01T07:03:44.193Z,2.30
2023-05-01T07:05:46.622Z,2.20
2023-05-01T07:08:51.200Z,3.40
2023-05-01T07:10:21.725Z,2.50
2023-05-01T07:13:26.851Z,3.90
2023-05-01T07:16:01.018Z,2.30
2023-05-01T07:18:38.809Z,2.60
2023-05-01T07:25:20.880Z,2.50
2023-05-01T07:28:57.971Z,2.60
2023-05-01T07:30:59.211Z,2.60
2023-05-01T07:34:35.915Z,2.30
2023-05-01T07:39:11.475Z,2.00
2023-05-01T07:40:44.899Z,2.30
2023-05-01T07:46:44.185Z,2.90
2023-05-01T07:51:19.787Z,2.60
2023-05-01T07:54:56.704Z,2.50
2023-05-01T07:59:28.346Z,2.20
2023-05-01T08:01:01.200Z,2.60
2023-05-01T08:01:59.401Z,2.30
2023-05-01T08:02:59.453Z,2.20
2023-05-01T08:07:45.309Z,2.40
2023-05-01T08:09:48.196Z,2.30
2023-05-01T08:12:48.707Z,2.30
2023-05-01T08:15:21.625Z,2.30
2023-05-01T08:16:52.121Z,2.30
2023-05-01T08:17:51.358Z,2.20
2023-05-01T08:18:51.355Z,3.00
2023-05-01T08:19:51.273Z,2.50
2023-05-01T08:23:24.156Z,2.20
2023-05-01T08:26:24.903Z,2.80
2023-05-01T08:28:24.337Z,2.40
2023-05-01T08:32:00.263Z,2.20
2023-05-01T08:33:30.374Z,2.10
2023-05-01T08:36:35.019Z,2.40
2023-05-01T08:39:04.565Z,1.80
2023-05-01T08:42:08.882Z,2.70
2023-05-01T08:44:10.950Z,1.80
2023-05-01T08:45:41.168Z,2.30
2023-05-01T08:48:10.604Z,2.50
2023-05-01T08:54:16.171Z,3.00
2023-05-01T08:55:46.470Z,2.90
2023-05-01T08:58:52.410Z,2.40
2023-05-01T09:00:54.476Z,2.40
2023-05-01T09:04:25.023Z,2.70
2023-05-01T09:07:31.272Z,2.40
2023-05-01T09:12:13.864Z,2.90
2023-05-01T09:14:45.392Z,2.70
2023-05-01T09:17:46.996Z,2.00
2023-05-01T09:19:15.868Z,2.90
2023-05-01T09:21:49.353Z,2.20
2023-05-01T09:23:19.083Z,2.20
2023-05-01T09:24:49.636Z,2.10
2023-05-01T09:26:51.484Z,2.90
2023-05-01T09:31:22.281Z,2.30
2023-05-01T09:34:56.907Z,2.30
2023-05-01T09:36:59.821Z,2.60
2023-05-01T09:38:29.583Z,2.10
2023-05-01T09:42:05.233Z,2.70
2023-05-01T09:45:07.677Z,2.20
2023-05-01T09:46:38.450Z,2.40
2023-05-01T09:53:45.916Z,2.10
2023-05-01T09:56:15.173Z,2.60
2023-05-01T09:58:16.540Z,3.20
2023-05-01T10:03:22.822Z,2.70
2023-05-01T10:06:24.793Z,2.80
2023-05-01T10:07:55.510Z,2.60
2023-05-01T10:09:26.326Z,2.60
2023-05-01T10:10:56.139Z,2.50
2023-05-01T10:12:57.405Z,4.00
2023-05-01T10:16:00.670Z,2.60
2023-05-01T10:18:33.240Z,2.60
2023-05-01T10:20:02.520Z,2.40
2023-05-01T10:22:35.633Z,2.20
2023-05-01T10:24:37.780Z,2.10
2023-05-01T10:29:13.866Z,2.70
2023-05-01T10:32:48.540Z,1.90
2023-05-01T10:34:50.544Z,2.30
2023-05-01T10:36:52.610Z,2.50
2023-05-01T10:39:16.803Z,2.50
2023-05-01T10:42:50.610Z,2.00
2023-05-01T10:45:53.337Z,2.50
2023-05-01T10:49:56.583Z,2.00
2023-05-01T10:52:28.939Z,2.40
2023-05-01T10:56:06.864Z,2.60
2023-05-01T10:58:41.037Z,2.30
2023-05-01T11:00:09.334Z,2.60
2023-05-01T11:04:19.216Z,3.60
2023-05-01T11:06:18.920Z,2.60
2023-05-01T11:09:25.583Z,2.50
2023-05-01T11:11:58.986Z,2.50
2023-05-01T11:16:30.786Z,2.30
2023-05-01T11:20:03.764Z,3.60
2023-05-01T11:21:02.912Z,2.40
2023-05-01T11:22:02.927Z,2.80
2023-05-01T11:26:38.603Z,2.90
2023-05-01T11:32:47.768Z,2.20
2023-05-01T11:36:25.145Z,2.10
2023-05-01T11:37:56.914Z,2.10
2023-05-01T11:45:11.149Z,2.40
2023-05-01T11:47:44.301Z,2.30
2023-05-01T11:50:18.288Z,1.90
2023-05-01T11:52:49.023Z,2.70
2023-05-01T11:54:52.708Z,2.30
2023-05-01T11:56:26.955Z,2.40
2023-05-01T11:58:28.968Z,2.70
2023-05-01T12:02:05.384Z,2.10
2023-05-01T12:05:09.572Z,2.80
2023-05-01T12:07:09.984Z,2.40
2023-05-01T12:09:12.039Z,3.40
2023-05-01T12:14:19.258Z,2.10
2023-05-01T12:20:56.547Z,2.20
2023-05-01T12:25:01.515Z,1.30
2023-05-01T12:27:02.758Z,1.90
2023-05-01T12:28:32.452Z,1.90
2023-05-01T12:31:05.656Z,1.70
2023-05-01T12:32:35.079Z,1.70
2023-05-01T12:34:38.286Z,1.50
2023-05-01T12:38:16.281Z,2.00
2023-05-01T12:39:46.487Z,1.50
2023-05-01T12:41:16.467Z,1.60
2023-05-01T12:42:48.827Z,2.00
2023-05-01T12:44:20.417Z,1.60
2023-05-01T12:45:50.349Z,1.80
2023-05-01T12:48:19.867Z,2.60
2023-05-01T12:53:26.126Z,1.40
2023-05-01T12:54:56.272Z,1.70
2023-05-01T13:00:29.266Z,1.70
2023-05-01T13:02:00.669Z,1.60
2023-05-01T13:05:14.909Z,2.00
2023-05-01T13:07:18.110Z,2.00
2023-05-01T13:09:15.686Z,1.50
2023-05-01T13:10:47.739Z,1.90
2023-05-01T13:11:47.707Z,1.80
2023-05-01T13:12:47.683Z,1.50
2023-05-01T13:14:17.964Z,1.60
2023-05-01T13:20:28.291Z,1.60
2023-05-01T13:23:00.652Z,1.90
2023-05-01T13:25:32.202Z,2.10
2023-05-01T13:27:32.637Z,2.50
2023-05-01T13:30:07.424Z,2.00
2023-05-01T13:31:37.593Z,1.90
2023-05-01T13:34:38.361Z,1.50
2023-05-01T13:36:14.508Z,1.40
2023-05-01T13:44:12.514Z,1.60
2023-05-01T13:47:44.297Z,1.20
2023-05-01T13:52:16.614Z,1.80
2023-05-01T13:53:46.967Z,2.40
2023-05-01T13:55:18.350Z,1.40
2023-05-01T13:58:52.644Z,1.90
2023-05-01T14:00:52.945Z,2.30
2023-05-01T14:05:02.362Z,2.20
2023-05-01T14:07:31.370Z,2.30
2023-05-01T14:10:01.638Z,2.50
2023-05-01T14:12:03.680Z,2.80
2023-05-01T14:13:35.765Z,3.00
2023-05-01T14:19:10.861Z,2.70
2023-05-01T14:22:44.079Z,2.10
2023-05-01T14:25:13.256Z,2.70
2023-05-01T14:28:16.421Z,2.80
2023-05-01T14:37:27.747Z,2.20
2023-05-01T14:42:08.597Z,2.70
2023-05-01T14:54:45.043Z,2.10
2023-05-01T14:56:18.284Z,2.20
2023-05-01T14:57:48.019Z,2.00
2023-05-01T15:00:20.883Z,1.50
2023-05-01T15:02:53.791Z,2.20
2023-05-01T15:06:24.153Z,2.50
2023-05-01T15:08:23.578Z,2.00
2023-05-01T15:11:26.708Z,1.50
2023-05-01T15:12:56.405Z,1.50
2023-05-01T15:15:26.157Z,1.20
2023-05-01T15:22:59.345Z,1.60
2023-05-01T15:25:01.363Z,1.00
2023-05-01T15:27:02.412Z,1.20
2023-05-01T15:29:02.405Z,1.00
2023-05-01T15:34:10.573Z,1.20
2023-05-01T15:38:10.897Z,1.20
2023-05-01T15:39:41.170Z,1.20
2023-05-01T15:43:40.171Z,1.30
2023-05-01T15:46:10.754Z,1.00
2023-05-01T15:50:30.426Z,1.10
2023-05-01T15:54:32.541Z,1.90
2023-05-01T15:59:04.851Z,1.70
2023-05-01T16:01:06.142Z,1.90
2023-05-01T16:15:20.958Z,1.90
2023-05-01T16:21:49.654Z,1.90
2023-05-01T16:23:21.144Z,2.80
2023-05-01T16:25:51.150Z,1.70
2023-05-01T16:27:20.090Z,2.50
2023-05-01T16:28:50.624Z,2.20
2023-05-01T16:30:53.135Z,1.40
2023-05-01T16:33:24.178Z,2.10
2023-05-01T16:36:58.771Z,2.80
2023-05-01T16:40:00.311Z,1.80
2023-05-01T16:41:30.620Z,2.00
2023-05-01T16:43:30.103Z,1.80
2023-05-01T16:45:00.718Z,1.60
2023-05-01T16:46:30.481Z,2.50
2023-05-01T16:55:03.742Z,2.20
2023-05-01T16:56:34.267Z,1.80
2023-05-01T16:59:04.272Z,2.00
2023-05-01T17:05:40.185Z,2.10
2023-05-01T17:09:28.268Z,1.80
2023-05-01T17:13:59.068Z,2.20
2023-05-01T17:17:29.039Z,2.50
2023-05-01T17:29:12.464Z,1.90
2023-05-01T17:39:58.883Z,2.10
2023-05-01T17:48:10.457Z,1.90
2023-05-01T17:49:09.529Z,1.90
2023-05-01T17:50:09.492Z,2.20
2023-05-01T17:51:11.294Z,2.30
2023-05-01T17:54:14.904Z,2.80
2023-05-01T17:56:51.353Z,3.10
2023-05-01T17:58:21.496Z,3.20
2023-05-01T18:02:01.305Z,3.50
2023-05-01T18:09:50.229Z,4.10
2023-05-01T18:12:21.298Z,3.80
2023-05-01T18:14:21.593Z,3.20
2023-05-01T18:16:24.494Z,4.20
2023-05-01T18:22:29.183Z,3.40
2023-05-01T18:27:28.662Z,2.70
2023-05-01T18:31:02.013Z,2.70
2023-05-01T18:32:46.356Z,2.00
2023-05-01T18:35:37.816Z,2.00
2023-05-01T18:42:41.737Z,2.50
2023-05-01T18:51:06.765Z,2.50
2023-05-01T18:56:38.621Z,3.30
2023-05-01T18:59:38.946Z,2.80
2023-05-01T19:02:11.311Z,2.90
2023-05-01T19:11:11.992Z,4.60
2023-05-01T19:14:17.339Z,4.50
2023-05-01T19:15:50.051Z,4.90
2023-05-01T19:22:02.453Z,6.20
2023-05-01T19:26:36.086Z,5.00
2023-05-01T19:32:52.805Z,5.80
2023-05-01T19:38:22.021Z,5.40
2023-05-01T19:40:56.902Z,5.80
2023-05-01T19:43:30.604Z,6.50
2023-05-01T19:44:59.501Z,5.70
2023-05-01T19:48:30.249Z,6.10
2023-05-01T19:50:00.099Z,6.10
2023-05-01T19:52:59.779Z,5.20
2023-05-01T19:55:03.696Z,5.80
2023-05-01T19:59:41.712Z,6.50
2023-05-01T20:01:11.927Z,6.40
2023-05-01T20:04:15.885Z,6.80
2023-05-01T20:06:19.028Z,7.10
2023-05-01T20:08:18.621Z,6.80
2023-05-01T20:09:18.611Z,6.30
2023-05-01T20:10:18.569Z,6.90
2023-05-01T20:11:18.536Z,7.30
2023-05-01T20:14:21.527Z,7.20
2023-05-01T20:15:51.652Z,7.00
2023-05-01T20:17:53.834Z,7.90
2023-05-01T20:19:21.721Z,6.60
2023-05-01T20:20:51.463Z,7.40
2023-05-01T20:22:21.245Z,6.10
2023-05-01T20:24:53.932Z,7.20
2023-05-01T20:29:09.533Z,7.80
2023-05-01T20:31:43.096Z,7.70
2023-05-01T20:34:45.411Z,6.50
2023-05-01T20:36:15.513Z,7.50
2023-05-01T20:37:47.207Z,7.20
2023-05-01T20:39:48.755Z,6.90
2023-05-01T20:41:18.667Z,6.80
2023-05-01T20:43:50.978Z,6.60
2023-05-01T20:47:24.858Z,7.50
2023-05-01T20:49:56.549Z,7.00
2023-05-01T20:51:57.615Z,7.00
2023-05-01T20:53:58.828Z,7.90
2023-05-01T20:56:31.218Z,8.10
2023-05-01T20:58:01.319Z,7.60
2023-05-01T21:02:06.316Z,6.80
2023-05-01T21:05:11.668Z,7.70
2023-05-01T21:06:42.371Z,7.50
2023-05-01T21:10:16.340Z,8.60
2023-05-01T21:11:50.403Z,9.10
2023-05-01T21:21:13.961Z,9.80
2023-05-01T21:23:48.902Z,12.10
2023-05-01T21:26:51.462Z,10.40
2023-05-01T21:28:52.792Z,11.90
2023-05-01T21:31:53.804Z,11.80
2023-05-01T21:43:24.365Z,10.80
2023-05-01T21:44:54.461Z,10.60
2023-05-01T21:46:53.302Z,10.80
2023-05-01T21:48:53.691Z,12.10
2023-05-01T21:55:00.719Z,12.00
2023-05-01T21:56:31.611Z,13.10
2023-05-01T21:59:01.034Z,13.40
2023-05-01T22:01:30.673Z,13.00
2023-05-01T22:03:00.975Z,13.70
2023-05-01T22:06:34.587Z,11.90
2023-05-01T22:12:17.257Z,13.70
2023-05-01T22:15:18.626Z,11.40
2023-05-01T22:19:25.386Z,13.20
2023-05-01T22:27:47.046Z,12.90
2023-05-01T22:32:49.050Z,12.20
2023-05-01T22:34:19.597Z,10.50
2023-05-01T22:40:18.760Z,11.10
2023-05-01T22:43:49.642Z,10.30
2023-05-01T22:48:49.872Z,10.80
2023-05-01T22:50:49.448Z,11.00
2023-05-01T22:52:19.648Z,10.90
2023-05-01T22:57:51.445Z,11.20
2023-05-01T23:03:12.664Z,11.40
2023-05-01T23:09:17.082Z,10.80
2023-05-01T23:12:48.460Z,11.50
2023-05-01T23:14:18.588Z,12.40
2023-05-01T23:17:48.976Z,12.30
2023-05-01T23:19:18.646Z,11.60
2023-05-01T23:21:52.433Z,12.70
2023-05-01T23:24:55.384Z,12.00
2023-05-01T23:26:55.512Z,11.50
2023-05-01T23:29:37.735Z,12.20
2023-05-01T23:31:41.008Z,12.30
2023-05-01T23:37:12.405Z,11.90
2023-05-01T23:42:17.930Z,12.30
2023-05-01T23:51:26.940Z,13.40
2023-05-01T23:55:58.761Z,10.90
